GCGM/GMZ METAR and TAF weather

Enter ICAO airport designator
Station Type Date Time Source
GCGM METAR 2022/06/28 14:30 UTC NOAA

GCGM 281430Z VRB06KT 9999 FEW025 24/13 Q1022 RMK R09/22006KT 150V290 ARP/09011G21KT 050V130


Station Type Date Time Source
GCGM Decoded METAR 2022/06/28 14:30 UTC NOAA

Station name not available
Jun 28, 2022 - 10:30 AM EDT / 2022.06.28 1430 UTC
Wind: Variable at 7 MPH (6 KT):0
Visibility: greater than 7 mile(s):0
Sky conditions: mostly clear
Temperature: 75 F (24 C)
Dew Point: 55 F (13 C)
Relative Humidity: 50%
Pressure (altimeter): 30.18 in. Hg (1022 hPa)
ob: GCGM 281430Z VRB06KT 9999 FEW025 24/13 Q1022 RMK R09/22006KT 150V290 ARP/09011G21KT 050V130
cycle: 14

Station Type Date Time Source
GCGM TAF 2022/06/28 15:00 UTC NOAA

TAF GCGM 281400Z 2815/2915 VRB09KT 9999 SCT030 TX24/2914Z TN20/2906Z
TEMPO 2815/2903 VRB15G25KT

Example: see airport list